createdAt,value
2023-04-07T00:01:54.902Z,20.8
2023-04-07T00:08:02.204Z,19.7
2023-04-07T00:13:54.707Z,19.9
2023-04-07T00:19:47.365Z,18
2023-04-07T00:25:39.534Z,20.3
2023-04-07T00:31:32.094Z,20.4
2023-04-07T00:37:23.020Z,19.5
2023-04-07T00:43:13.778Z,20.8
2023-04-07T00:49:04.812Z,20.8
2023-04-07T00:54:58.535Z,20.2
2023-04-07T01:00:50.959Z,21.8
2023-04-07T01:06:47.471Z,22.6
2023-04-07T01:12:39.071Z,23.9
2023-04-07T01:18:30.256Z,24.5
2023-04-07T01:24:21.226Z,23.9
2023-04-07T01:30:14.321Z,24
2023-04-07T01:36:06.050Z,24.1
2023-04-07T01:42:26.570Z,24.8
2023-04-07T04:57:00.312Z,31
2023-04-07T05:39:37.407Z,35.7
2023-04-07T05:51:58.279Z,37.6
2023-04-07T05:58:14.377Z,37.5
2023-04-07T06:04:37.609Z,35.2
2023-04-07T06:28:48.755Z,35
2023-04-07T07:07:20.944Z,32.4
2023-04-07T07:14:00.299Z,31.8
2023-04-07T07:20:19.317Z,30.6
2023-04-07T08:21:36.763Z,22.8
2023-04-07T08:27:35.272Z,22.9
2023-04-07T08:33:37.350Z,20.1
2023-04-07T09:52:58.875Z,11.7
2023-04-07T17:10:41.226Z,18.8
2023-04-07T17:22:57.508Z,23.8
2023-04-07T18:25:22.985Z,24.4
2023-04-07T18:44:01.424Z,19.8
2023-04-07T18:50:33.028Z,21.7
2023-04-07T18:56:44.494Z,18.9
2023-04-07T19:02:52.209Z,20.6
2023-04-07T19:15:02.317Z,18.2
2023-04-07T19:20:58.668Z,17.9
2023-04-07T22:25:35.640Z,20.2
2023-04-07T22:31:26.788Z,19.6
2023-04-07T22:37:18.340Z,20.1
2023-04-07T22:43:10.850Z,19
2023-04-07T22:49:02.867Z,19.8
2023-04-07T22:54:54.752Z,20.8
2023-04-07T23:00:47.131Z,20.3
2023-04-07T23:06:39.592Z,20
2023-04-07T23:12:32.868Z,19.5
2023-04-07T23:18:26.262Z,19
2023-04-07T23:24:19.824Z,19.6
2023-04-07T23:30:12.146Z,20.2
2023-04-07T23:36:06.882Z,19.9
2023-04-07T23:41:59.264Z,19.8
2023-04-07T23:47:52.758Z,21.3
2023-04-07T23:53:44.972Z,21.4
2023-04-07T23:59:36.764Z,23.2
